Eastchester, New York
Current Conditions -  °F | °C
As of 3:56 PM on Monday 24 Nov 2014 (Local Time) from KHPN Reporting Station
Few Clouds Few Clouds  
Wind Chill: 60°   Ceiling: Unl
Heat Index: 60°   Visibility: 10mi
Dew Point: 56°   Wind: 9mph
Humidity: 86%   Direction: 160°SSE
Pressure: 29.59"   Gusts: NA
Location:  40.96°N, 73.81°W
Report Text: KHPN 242056Z 16008KT 10SM FEW008 16/13 A2959 RMK AO2 SLP018 T01560133 55006
Loading
Personal Weather Stations






























Interactive Weather Map New forecast layout! Learn more

10-Day Weather Forecast

Advertisements
Track Severe Weather on mobile